sensor_id;sensor_type;location;lat;lon;timestamp;P1;durP1;ratioP1;P2;durP2;ratioP2
66169;SDS011;52971;44.024;20.456;2022-11-04T00:01:55;116.55;;;64.55;;
66169;SDS011;52971;44.024;20.456;2022-11-04T00:04:22;99.00;;;59.88;;
66169;SDS011;52971;44.024;20.456;2022-11-04T00:06:48;102.13;;;56.80;;
66169;SDS011;52971;44.024;20.456;2022-11-04T00:09:15;106.82;;;56.72;;
66169;SDS011;52971;44.024;20.456;2022-11-04T00:11:45;112.22;;;63.58;;
66169;SDS011;52971;44.024;20.456;2022-11-04T00:14:29;110.47;;;62.45;;
66169;SDS011;52971;44.024;20.456;2022-11-04T00:16:56;108.05;;;63.90;;
66169;SDS011;52971;44.024;20.456;2022-11-04T00:19:40;105.70;;;62.15;;
66169;SDS011;52971;44.024;20.456;2022-11-04T00:22:24;100.00;;;58.83;;
66169;SDS011;52971;44.024;20.456;2022-11-04T00:25:28;103.72;;;57.60;;
66169;SDS011;52971;44.024;20.456;2022-11-04T00:28:13;98.10;;;56.53;;
66169;SDS011;52971;44.024;20.456;2022-11-04T00:30:59;98.65;;;54.53;;
66169;SDS011;52971;44.024;20.456;2022-11-04T00:33:44;95.25;;;53.78;;
66169;SDS011;52971;44.024;20.456;2022-11-04T00:36:10;90.72;;;52.67;;
66169;SDS011;52971;44.024;20.456;2022-11-04T00:38:36;87.00;;;48.17;;
66169;SDS011;52971;44.024;20.456;2022-11-04T00:41:01;85.45;;;49.40;;
66169;SDS011;52971;44.024;20.456;2022-11-04T00:43:27;88.85;;;46.58;;
66169;SDS011;52971;44.024;20.456;2022-11-04T00:45:52;89.75;;;50.40;;
66169;SDS011;52971;44.024;20.456;2022-11-04T00:48:17;88.97;;;48.50;;
66169;SDS011;52971;44.024;20.456;2022-11-04T00:50:43;77.50;;;42.88;;
66169;SDS011;52971;44.024;20.456;2022-11-04T00:53:08;84.30;;;44.45;;
66169;SDS011;52971;44.024;20.456;2022-11-04T00:55:34;80.47;;;43.13;;
66169;SDS011;52971;44.024;20.456;2022-11-04T00:57:59;78.95;;;41.58;;
66169;SDS011;52971;44.024;20.456;2022-11-04T01:00:25;76.72;;;42.90;;
66169;SDS011;52971;44.024;20.456;2022-11-04T01:02:50;77.70;;;41.28;;
66169;SDS011;52971;44.024;20.456;2022-11-04T01:05:16;80.95;;;43.25;;
66169;SDS011;52971;44.024;20.456;2022-11-04T01:07:41;80.93;;;42.17;;
66169;SDS011;52971;44.024;20.456;2022-11-04T01:10:07;78.47;;;42.35;;
66169;SDS011;52971;44.024;20.456;2022-11-04T01:12:33;79.53;;;46.30;;
66169;SDS011;52971;44.024;20.456;2022-11-04T01:14:58;87.03;;;47.10;;
66169;SDS011;52971;44.024;20.456;2022-11-04T01:17:24;92.72;;;51.35;;
66169;SDS011;52971;44.024;20.456;2022-11-04T01:19:49;87.10;;;50.38;;
66169;SDS011;52971;44.024;20.456;2022-11-04T01:22:15;93.15;;;51.75;;
66169;SDS011;52971;44.024;20.456;2022-11-04T01:24:40;85.07;;;50.70;;
66169;SDS011;52971;44.024;20.456;2022-11-04T01:27:06;89.80;;;52.78;;
66169;SDS011;52971;44.024;20.456;2022-11-04T01:29:31;89.43;;;53.35;;
66169;SDS011;52971;44.024;20.456;2022-11-04T01:31:56;90.57;;;49.67;;
66169;SDS011;52971;44.024;20.456;2022-11-04T01:34:22;95.13;;;51.58;;
66169;SDS011;52971;44.024;20.456;2022-11-04T01:36:47;91.25;;;50.13;;
66169;SDS011;52971;44.024;20.456;2022-11-04T01:39:13;91.97;;;48.95;;
66169;SDS011;52971;44.024;20.456;2022-11-04T01:41:38;89.78;;;50.63;;
66169;SDS011;52971;44.024;20.456;2022-11-04T01:44:51;101.57;;;49.83;;
66169;SDS011;52971;44.024;20.456;2022-11-04T01:47:51;87.40;;;48.28;;
66169;SDS011;52971;44.024;20.456;2022-11-04T01:50:06;88.55;;;49.13;;
66169;SDS011;52971;44.024;20.456;2022-11-04T01:52:55;91.88;;;53.55;;
66169;SDS011;52971;44.024;20.456;2022-11-04T01:55:23;95.75;;;54.25;;
66169;SDS011;52971;44.024;20.456;2022-11-04T01:57:52;91.72;;;49.17;;
66169;SDS011;52971;44.024;20.456;2022-11-04T02:00:20;88.13;;;47.75;;
66169;SDS011;52971;44.024;20.456;2022-11-04T02:02:53;92.70;;;51.15;;
66169;SDS011;52971;44.024;20.456;2022-11-04T02:05:24;80.93;;;45.08;;
66169;SDS011;52971;44.024;20.456;2022-11-04T02:07:53;82.13;;;44.05;;
66169;SDS011;52971;44.024;20.456;2022-11-04T02:10:22;78.30;;;43.15;;
66169;SDS011;52971;44.024;20.456;2022-11-04T02:12:50;84.05;;;44.17;;
66169;SDS011;52971;44.024;20.456;2022-11-04T02:15:18;74.75;;;42.08;;
66169;SDS011;52971;44.024;20.456;2022-11-04T02:21:21;71.47;;;39.55;;
66169;SDS011;52971;44.024;20.456;2022-11-04T02:27:14;75.10;;;40.80;;
66169;SDS011;52971;44.024;20.456;2022-11-04T02:32:33;78.55;;;42.60;;
66169;SDS011;52971;44.024;20.456;2022-11-04T02:42:47;91.90;;;49.78;;
66169;SDS011;52971;44.024;20.456;2022-11-04T02:45:21;89.63;;;49.15;;
66169;SDS011;52971;44.024;20.456;2022-11-04T02:47:53;95.88;;;52.40;;
66169;SDS011;52971;44.024;20.456;2022-11-04T02:50:38;93.43;;;50.55;;
66169;SDS011;52971;44.024;20.456;2022-11-04T02:55:48;88.45;;;49.38;;
66169;SDS011;52971;44.024;20.456;2022-11-04T02:58:38;93.50;;;49.63;;
66169;SDS011;52971;44.024;20.456;2022-11-04T03:01:05;90.70;;;47.53;;
66169;SDS011;52971;44.024;20.456;2022-11-04T03:03:35;91.22;;;50.53;;
66169;SDS011;52971;44.024;20.456;2022-11-04T03:06:05;92.90;;;48.88;;
66169;SDS011;52971;44.024;20.456;2022-11-04T03:08:35;91.18;;;48.35;;
66169;SDS011;52971;44.024;20.456;2022-11-04T03:11:12;91.97;;;47.47;;
66169;SDS011;52971;44.024;20.456;2022-11-04T03:13:41;87.85;;;44.92;;
66169;SDS011;52971;44.024;20.456;2022-11-04T03:16:21;78.63;;;43.55;;
66169;SDS011;52971;44.024;20.456;2022-11-04T03:21:30;83.47;;;43.83;;
66169;SDS011;52971;44.024;20.456;2022-11-04T03:23:59;82.18;;;44.05;;
66169;SDS011;52971;44.024;20.456;2022-11-04T03:26:27;76.90;;;42.88;;
66169;SDS011;52971;44.024;20.456;2022-11-04T03:31:48;81.30;;;42.67;;
66169;SDS011;52971;44.024;20.456;2022-11-04T03:34:24;80.88;;;44.20;;
66169;SDS011;52971;44.024;20.456;2022-11-04T03:36:50;83.25;;;42.50;;
66169;SDS011;52971;44.024;20.456;2022-11-04T03:39:16;83.90;;;44.65;;
66169;SDS011;52971;44.024;20.456;2022-11-04T03:41:48;78.28;;;43.92;;
66169;SDS011;52971;44.024;20.456;2022-11-04T03:44:17;92.60;;;48.72;;
66169;SDS011;52971;44.024;20.456;2022-11-04T03:46:44;83.30;;;48.50;;
66169;SDS011;52971;44.024;20.456;2022-11-04T03:49:09;80.90;;;46.17;;
66169;SDS011;52971;44.024;20.456;2022-11-04T03:51:36;88.13;;;48.67;;
66169;SDS011;52971;44.024;20.456;2022-11-04T03:54:01;83.63;;;46.63;;
66169;SDS011;52971;44.024;20.456;2022-11-04T04:01:52;96.80;;;49.78;;
66169;SDS011;52971;44.024;20.456;2022-11-04T04:04:24;90.82;;;47.95;;
66169;SDS011;52971;44.024;20.456;2022-11-04T04:06:54;86.60;;;45.97;;
66169;SDS011;52971;44.024;20.456;2022-11-04T04:09:26;80.63;;;42.63;;
66169;SDS011;52971;44.024;20.456;2022-11-04T04:12:02;80.20;;;43.45;;
66169;SDS011;52971;44.024;20.456;2022-11-04T04:14:39;78.10;;;41.53;;
66169;SDS011;52971;44.024;20.456;2022-11-04T04:17:22;84.60;;;43.20;;
66169;SDS011;52971;44.024;20.456;2022-11-04T04:20:04;77.32;;;41.58;;
66169;SDS011;52971;44.024;20.456;2022-11-04T04:22:35;73.95;;;42.35;;
66169;SDS011;52971;44.024;20.456;2022-11-04T04:25:06;74.20;;;38.97;;
66169;SDS011;52971;44.024;20.456;2022-11-04T04:27:52;70.47;;;37.92;;
66169;SDS011;52971;44.024;20.456;2022-11-04T04:30:21;63.97;;;37.95;;
66169;SDS011;52971;44.024;20.456;2022-11-04T04:32:48;80.68;;;43.75;;
66169;SDS011;52971;44.024;20.456;2022-11-04T04:35:16;76.55;;;41.50;;
66169;SDS011;52971;44.024;20.456;2022-11-04T04:38:07;74.20;;;43.45;;
66169;SDS011;52971;44.024;20.456;2022-11-04T04:41:17;74.70;;;42.17;;
66169;SDS011;52971;44.024;20.456;2022-11-04T04:44:03;73.93;;;41.25;;
66169;SDS011;52971;44.024;20.456;2022-11-04T04:46:55;75.00;;;41.08;;
66169;SDS011;52971;44.024;20.456;2022-11-04T04:49:21;80.70;;;42.10;;
66169;SDS011;52971;44.024;20.456;2022-11-04T04:51:47;81.63;;;44.30;;
66169;SDS011;52971;44.024;20.456;2022-11-04T04:54:12;78.18;;;41.08;;
66169;SDS011;52971;44.024;20.456;2022-11-04T04:56:38;77.70;;;43.17;;
66169;SDS011;52971;44.024;20.456;2022-11-04T04:59:04;74.97;;;40.75;;
66169;SDS011;52971;44.024;20.456;2022-11-04T05:01:30;72.63;;;40.65;;
66169;SDS011;52971;44.024;20.456;2022-11-04T05:03:56;77.40;;;44.00;;
66169;SDS011;52971;44.024;20.456;2022-11-04T05:06:22;81.78;;;44.75;;
66169;SDS011;52971;44.024;20.456;2022-11-04T05:08:47;86.03;;;45.22;;
66169;SDS011;52971;44.024;20.456;2022-11-04T05:11:13;92.68;;;46.75;;
66169;SDS011;52971;44.024;20.456;2022-11-04T05:13:38;98.47;;;45.90;;
66169;SDS011;52971;44.024;20.456;2022-11-04T05:16:05;94.07;;;44.72;;
66169;SDS011;52971;44.024;20.456;2022-11-04T05:18:32;86.35;;;44.75;;
66169;SDS011;52971;44.024;20.456;2022-11-04T05:20:57;79.30;;;41.92;;
66169;SDS011;52971;44.024;20.456;2022-11-04T05:23:23;83.15;;;42.53;;
66169;SDS011;52971;44.024;20.456;2022-11-04T05:25:48;73.82;;;38.70;;
66169;SDS011;52971;44.024;20.456;2022-11-04T05:28:14;75.05;;;40.90;;
66169;SDS011;52971;44.024;20.456;2022-11-04T05:30:39;66.93;;;37.90;;
66169;SDS011;52971;44.024;20.456;2022-11-04T05:33:05;117.20;;;64.35;;
66169;SDS011;52971;44.024;20.456;2022-11-04T05:35:31;75.93;;;42.85;;
66169;SDS011;52971;44.024;20.456;2022-11-04T05:37:57;79.45;;;42.25;;
66169;SDS011;52971;44.024;20.456;2022-11-04T05:40:23;69.10;;;38.83;;
66169;SDS011;52971;44.024;20.456;2022-11-04T05:42:49;65.85;;;36.15;;
66169;SDS011;52971;44.024;20.456;2022-11-04T05:45:14;72.38;;;38.50;;
66169;SDS011;52971;44.024;20.456;2022-11-04T05:47:40;71.70;;;39.15;;
66169;SDS011;52971;44.024;20.456;2022-11-04T05:50:05;69.97;;;39.58;;
66169;SDS011;52971;44.024;20.456;2022-11-04T05:52:31;66.72;;;39.10;;
66169;SDS011;52971;44.024;20.456;2022-11-04T05:54:57;74.85;;;41.88;;
66169;SDS011;52971;44.024;20.456;2022-11-04T05:57:23;64.55;;;35.42;;
66169;SDS011;52971;44.024;20.456;2022-11-04T05:59:48;71.47;;;38.65;;
66169;SDS011;52971;44.024;20.456;2022-11-04T06:02:13;73.95;;;39.80;;
66169;SDS011;52971;44.024;20.456;2022-11-04T06:04:39;70.38;;;38.63;;
66169;SDS011;52971;44.024;20.456;2022-11-04T06:07:05;67.53;;;37.63;;
66169;SDS011;52971;44.024;20.456;2022-11-04T06:09:30;68.28;;;40.53;;
66169;SDS011;52971;44.024;20.456;2022-11-04T06:12:09;86.45;;;47.45;;
66169;SDS011;52971;44.024;20.456;2022-11-04T06:14:39;88.63;;;47.97;;
66169;SDS011;52971;44.024;20.456;2022-11-04T06:17:05;91.75;;;49.50;;
66169;SDS011;52971;44.024;20.456;2022-11-04T06:19:30;80.97;;;45.13;;
66169;SDS011;52971;44.024;20.456;2022-11-04T06:21:56;87.40;;;45.42;;
66169;SDS011;52971;44.024;20.456;2022-11-04T06:24:22;79.53;;;44.42;;
66169;SDS011;52971;44.024;20.456;2022-11-04T06:26:48;89.60;;;47.25;;
66169;SDS011;52971;44.024;20.456;2022-11-04T06:29:13;85.05;;;47.33;;
66169;SDS011;52971;44.024;20.456;2022-11-04T06:31:38;89.18;;;47.03;;
66169;SDS011;52971;44.024;20.456;2022-11-04T06:34:04;83.72;;;45.65;;
66169;SDS011;52971;44.024;20.456;2022-11-04T06:36:29;74.85;;;39.55;;
66169;SDS011;52971;44.024;20.456;2022-11-04T06:38:55;77.70;;;42.63;;
66169;SDS011;52971;44.024;20.456;2022-11-04T06:41:20;83.03;;;44.25;;
66169;SDS011;52971;44.024;20.456;2022-11-04T06:43:46;79.00;;;42.85;;
66169;SDS011;52971;44.024;20.456;2022-11-04T06:48:55;76.95;;;42.28;;
66169;SDS011;52971;44.024;20.456;2022-11-04T06:51:21;84.30;;;45.97;;
66169;SDS011;52971;44.024;20.456;2022-11-04T06:53:47;74.65;;;41.58;;
66169;SDS011;52971;44.024;20.456;2022-11-04T06:56:12;73.22;;;40.92;;
66169;SDS011;52971;44.024;20.456;2022-11-04T06:58:38;69.95;;;39.60;;
66169;SDS011;52971;44.024;20.456;2022-11-04T07:01:03;69.28;;;38.50;;
66169;SDS011;52971;44.024;20.456;2022-11-04T07:03:29;65.65;;;37.17;;
66169;SDS011;52971;44.024;20.456;2022-11-04T07:05:54;61.58;;;35.53;;
66169;SDS011;52971;44.024;20.456;2022-11-04T07:08:20;59.78;;;36.80;;
66169;SDS011;52971;44.024;20.456;2022-11-04T07:10:45;64.80;;;37.80;;
66169;SDS011;52971;44.024;20.456;2022-11-04T07:13:11;71.38;;;38.40;;
66169;SDS011;52971;44.024;20.456;2022-11-04T07:15:39;71.97;;;38.47;;
66169;SDS011;52971;44.024;20.456;2022-11-04T07:18:05;71.38;;;39.45;;
66169;SDS011;52971;44.024;20.456;2022-11-04T07:20:31;74.22;;;42.33;;
66169;SDS011;52971;44.024;20.456;2022-11-04T07:22:58;78.40;;;45.42;;
66169;SDS011;52971;44.024;20.456;2022-11-04T07:25:23;80.25;;;47.63;;
66169;SDS011;52971;44.024;20.456;2022-11-04T07:27:49;76.10;;;44.45;;
66169;SDS011;52971;44.024;20.456;2022-11-04T07:30:14;69.55;;;41.88;;
66169;SDS011;52971;44.024;20.456;2022-11-04T07:32:40;74.38;;;42.38;;
66169;SDS011;52971;44.024;20.456;2022-11-04T07:35:05;67.10;;;40.63;;
66169;SDS011;52971;44.024;20.456;2022-11-04T07:37:31;67.80;;;40.22;;
66169;SDS011;52971;44.024;20.456;2022-11-04T07:39:57;72.78;;;41.53;;
66169;SDS011;52971;44.024;20.456;2022-11-04T07:42:22;69.78;;;41.83;;
66169;SDS011;52971;44.024;20.456;2022-11-04T07:44:47;67.90;;;42.00;;
66169;SDS011;52971;44.024;20.456;2022-11-04T07:47:13;76.45;;;47.50;;
66169;SDS011;52971;44.024;20.456;2022-11-04T07:49:38;77.90;;;48.60;;
66169;SDS011;52971;44.024;20.456;2022-11-04T07:52:04;71.22;;;44.75;;
66169;SDS011;52971;44.024;20.456;2022-11-04T07:54:29;71.70;;;44.28;;
66169;SDS011;52971;44.024;20.456;2022-11-04T07:56:55;74.78;;;47.20;;
66169;SDS011;52971;44.024;20.456;2022-11-04T07:59:20;72.75;;;48.35;;
66169;SDS011;52971;44.024;20.456;2022-11-04T08:01:46;73.65;;;49.00;;
66169;SDS011;52971;44.024;20.456;2022-11-04T08:04:11;76.63;;;47.88;;
66169;SDS011;52971;44.024;20.456;2022-11-04T08:06:36;75.45;;;46.50;;
66169;SDS011;52971;44.024;20.456;2022-11-04T08:09:02;70.93;;;44.78;;
66169;SDS011;52971;44.024;20.456;2022-11-04T08:11:27;70.68;;;44.40;;
66169;SDS011;52971;44.024;20.456;2022-11-04T08:13:54;66.15;;;42.85;;
66169;SDS011;52971;44.024;20.456;2022-11-04T08:16:20;68.70;;;39.80;;
66169;SDS011;52971;44.024;20.456;2022-11-04T08:18:48;62.90;;;39.40;;
66169;SDS011;52971;44.024;20.456;2022-11-04T08:21:16;66.95;;;39.42;;
66169;SDS011;52971;44.024;20.456;2022-11-04T08:23:42;63.17;;;39.38;;
66169;SDS011;52971;44.024;20.456;2022-11-04T08:26:14;66.78;;;38.92;;
66169;SDS011;52971;44.024;20.456;2022-11-04T08:28:41;62.15;;;39.03;;
66169;SDS011;52971;44.024;20.456;2022-11-04T08:31:08;66.97;;;38.85;;
66169;SDS011;52971;44.024;20.456;2022-11-04T08:33:37;64.53;;;40.13;;
66169;SDS011;52971;44.024;20.456;2022-11-04T08:36:04;62.10;;;39.50;;
66169;SDS011;52971;44.024;20.456;2022-11-04T08:38:34;61.45;;;36.83;;
66169;SDS011;52971;44.024;20.456;2022-11-04T08:41:02;55.72;;;36.10;;
66169;SDS011;52971;44.024;20.456;2022-11-04T08:43:29;65.22;;;36.33;;
66169;SDS011;52971;44.024;20.456;2022-11-04T08:45:55;52.55;;;32.42;;
66169;SDS011;52971;44.024;20.456;2022-11-04T08:48:20;49.13;;;31.63;;
66169;SDS011;52971;44.024;20.456;2022-11-04T08:50:49;51.88;;;32.30;;
66169;SDS011;52971;44.024;20.456;2022-11-04T08:53:16;51.72;;;31.60;;
66169;SDS011;52971;44.024;20.456;2022-11-04T08:55:42;48.83;;;30.58;;
66169;SDS011;52971;44.024;20.456;2022-11-04T08:58:08;49.22;;;30.13;;
66169;SDS011;52971;44.024;20.456;2022-11-04T09:00:34;38.83;;;29.02;;
66169;SDS011;52971;44.024;20.456;2022-11-04T09:03:00;42.40;;;27.73;;
66169;SDS011;52971;44.024;20.456;2022-11-04T09:05:25;46.25;;;29.90;;
66169;SDS011;52971;44.024;20.456;2022-11-04T09:07:51;47.50;;;30.13;;
66169;SDS011;52971;44.024;20.456;2022-11-04T09:10:16;45.80;;;30.35;;
66169;SDS011;52971;44.024;20.456;2022-11-04T09:12:42;49.17;;;30.88;;
66169;SDS011;52971;44.024;20.456;2022-11-04T09:15:08;48.65;;;31.67;;
66169;SDS011;52971;44.024;20.456;2022-11-04T09:17:34;54.53;;;32.67;;
66169;SDS011;52971;44.024;20.456;2022-11-04T09:20:00;40.58;;;25.02;;
66169;SDS011;52971;44.024;20.456;2022-11-04T09:22:25;36.65;;;23.67;;
66169;SDS011;52971;44.024;20.456;2022-11-04T09:24:52;36.60;;;24.00;;
66169;SDS011;52971;44.024;20.456;2022-11-04T09:27:17;34.53;;;21.98;;
66169;SDS011;52971;44.024;20.456;2022-11-04T09:29:43;35.28;;;22.00;;
66169;SDS011;52971;44.024;20.456;2022-11-04T09:32:09;32.22;;;21.88;;
66169;SDS011;52971;44.024;20.456;2022-11-04T09:34:34;34.30;;;21.20;;
66169;SDS011;52971;44.024;20.456;2022-11-04T09:37:00;37.33;;;21.67;;
66169;SDS011;52971;44.024;20.456;2022-11-04T09:39:25;35.63;;;22.73;;
66169;SDS011;52971;44.024;20.456;2022-11-04T09:47:20;41.47;;;24.17;;
66169;SDS011;52971;44.024;20.456;2022-11-04T09:49:48;53.20;;;31.65;;
66169;SDS011;52971;44.024;20.456;2022-11-04T09:52:20;45.83;;;26.20;;
66169;SDS011;52971;44.024;20.456;2022-11-04T09:57:36;43.25;;;26.48;;
66169;SDS011;52971;44.024;20.456;2022-11-04T10:00:02;38.97;;;23.08;;
66169;SDS011;52971;44.024;20.456;2022-11-04T10:02:41;38.78;;;24.27;;
66169;SDS011;52971;44.024;20.456;2022-11-04T10:10:31;82.38;;;56.63;;
66169;SDS011;52971;44.024;20.456;2022-11-04T10:21:47;44.55;;;26.25;;
66169;SDS011;52971;44.024;20.456;2022-11-04T10:24:23;42.60;;;27.00;;
66169;SDS011;52971;44.024;20.456;2022-11-04T10:27:21;40.33;;;26.80;;
66169;SDS011;52971;44.024;20.456;2022-11-04T10:35:28;42.35;;;26.23;;
66169;SDS011;52971;44.024;20.456;2022-11-04T10:37:57;48.38;;;27.35;;
66169;SDS011;52971;44.024;20.456;2022-11-04T10:40:37;48.13;;;28.92;;
66169;SDS011;52971;44.024;20.456;2022-11-04T10:43:05;44.30;;;27.45;;
66169;SDS011;52971;44.024;20.456;2022-11-04T10:45:41;52.22;;;31.90;;
66169;SDS011;52971;44.024;20.456;2022-11-04T10:48:15;52.55;;;32.50;;
66169;SDS011;52971;44.024;20.456;2022-11-04T10:50:54;56.15;;;32.38;;
66169;SDS011;52971;44.024;20.456;2022-11-04T10:53:27;49.03;;;28.27;;
66169;SDS011;52971;44.024;20.456;2022-11-04T10:56:11;48.30;;;28.75;;
66169;SDS011;52971;44.024;20.456;2022-11-04T10:58:46;50.33;;;30.77;;
66169;SDS011;52971;44.024;20.456;2022-11-04T11:01:26;48.40;;;29.08;;
66169;SDS011;52971;44.024;20.456;2022-11-04T11:03:56;46.72;;;27.27;;
66169;SDS011;52971;44.024;20.456;2022-11-04T11:09:13;48.80;;;30.08;;
66169;SDS011;52971;44.024;20.456;2022-11-04T11:11:46;51.33;;;29.80;;
66169;SDS011;52971;44.024;20.456;2022-11-04T11:14:17;52.15;;;30.70;;
66169;SDS011;52971;44.024;20.456;2022-11-04T11:16:44;50.60;;;29.83;;
66169;SDS011;52971;44.024;20.456;2022-11-04T11:21:48;45.70;;;27.63;;
66169;SDS011;52971;44.024;20.456;2022-11-04T11:24:22;46.08;;;25.63;;
66169;SDS011;52971;44.024;20.456;2022-11-04T11:26:48;50.72;;;28.83;;
66169;SDS011;52971;44.024;20.456;2022-11-04T11:29:24;46.45;;;26.85;;
66169;SDS011;52971;44.024;20.456;2022-11-04T11:31:53;50.05;;;29.80;;
66169;SDS011;52971;44.024;20.456;2022-11-04T11:34:24;59.33;;;32.83;;
66169;SDS011;52971;44.024;20.456;2022-11-04T11:36:54;48.03;;;29.08;;
66169;SDS011;52971;44.024;20.456;2022-11-04T11:39:25;55.13;;;35.08;;
66169;SDS011;52971;44.024;20.456;2022-11-04T11:41:54;49.65;;;32.00;;
66169;SDS011;52971;44.024;20.456;2022-11-04T11:44:38;52.95;;;32.83;;
66169;SDS011;52971;44.024;20.456;2022-11-04T11:47:54;45.38;;;28.45;;
66169;SDS011;52971;44.024;20.456;2022-11-04T11:50:14;42.15;;;27.50;;
66169;SDS011;52971;44.024;20.456;2022-11-04T11:53:06;39.58;;;23.95;;
66169;SDS011;52971;44.024;20.456;2022-11-04T11:55:38;39.67;;;24.90;;
66169;SDS011;52971;44.024;20.456;2022-11-04T12:00:50;43.78;;;24.90;;
66169;SDS011;52971;44.024;20.456;2022-11-04T12:03:28;39.75;;;23.73;;
66169;SDS011;52971;44.024;20.456;2022-11-04T12:11:43;38.92;;;23.50;;
66169;SDS011;52971;44.024;20.456;2022-11-04T12:25:18;38.30;;;23.55;;
66169;SDS011;52971;44.024;20.456;2022-11-04T12:34:28;37.58;;;24.35;;
66169;SDS011;52971;44.024;20.456;2022-11-04T12:37:17;39.30;;;26.50;;
66169;SDS011;52971;44.024;20.456;2022-11-04T12:45:31;42.70;;;27.13;;
66169;SDS011;52971;44.024;20.456;2022-11-04T12:48:11;41.35;;;24.05;;
66169;SDS011;52971;44.024;20.456;2022-11-04T12:53:56;40.45;;;25.38;;
66169;SDS011;52971;44.024;20.456;2022-11-04T12:56:30;45.78;;;26.50;;
66169;SDS011;52971;44.024;20.456;2022-11-04T13:02:11;38.22;;;23.58;;
66169;SDS011;52971;44.024;20.456;2022-11-04T13:07:21;38.45;;;22.52;;
66169;SDS011;52971;44.024;20.456;2022-11-04T13:09:57;38.97;;;23.70;;
66169;SDS011;52971;44.024;20.456;2022-11-04T13:12:29;39.97;;;25.23;;
66169;SDS011;52971;44.024;20.456;2022-11-04T13:15:01;39.95;;;24.90;;
66169;SDS011;52971;44.024;20.456;2022-11-04T13:17:37;60.90;;;36.40;;
66169;SDS011;52971;44.024;20.456;2022-11-04T13:20:26;49.90;;;30.75;;
66169;SDS011;52971;44.024;20.456;2022-11-04T13:22:57;49.72;;;29.27;;
66169;SDS011;52971;44.024;20.456;2022-11-04T13:27:51;43.53;;;28.13;;
66169;SDS011;52971;44.024;20.456;2022-11-04T13:30:39;50.28;;;31.00;;
66169;SDS011;52971;44.024;20.456;2022-11-04T13:41:39;45.00;;;27.35;;
66169;SDS011;52971;44.024;20.456;2022-11-04T13:44:27;53.70;;;29.48;;
66169;SDS011;52971;44.024;20.456;2022-11-04T13:46:57;47.95;;;29.15;;
66169;SDS011;52971;44.024;20.456;2022-11-04T13:49:28;55.17;;;34.70;;
66169;SDS011;52971;44.024;20.456;2022-11-04T13:52:08;56.00;;;36.67;;
66169;SDS011;52971;44.024;20.456;2022-11-04T13:54:52;58.83;;;37.28;;
66169;SDS011;52971;44.024;20.456;2022-11-04T13:57:22;59.47;;;37.53;;
66169;SDS011;52971;44.024;20.456;2022-11-04T14:16:02;58.08;;;37.63;;
66169;SDS011;52971;44.024;20.456;2022-11-04T14:18:33;61.50;;;39.60;;
66169;SDS011;52971;44.024;20.456;2022-11-04T14:21:05;60.97;;;38.88;;
66169;SDS011;52971;44.024;20.456;2022-11-04T14:23:34;63.88;;;40.83;;
66169;SDS011;52971;44.024;20.456;2022-11-04T14:26:02;65.47;;;40.40;;
66169;SDS011;52971;44.024;20.456;2022-11-04T14:28:30;59.45;;;39.83;;
66169;SDS011;52971;44.024;20.456;2022-11-04T14:31:00;56.15;;;37.97;;
66169;SDS011;52971;44.024;20.456;2022-11-04T14:33:34;65.53;;;42.80;;
66169;SDS011;52971;44.024;20.456;2022-11-04T14:41:48;79.97;;;51.83;;
66169;SDS011;52971;44.024;20.456;2022-11-04T14:46:58;77.05;;;48.10;;
66169;SDS011;52971;44.024;20.456;2022-11-04T14:49:41;88.20;;;55.90;;
66169;SDS011;52971;44.024;20.456;2022-11-04T14:52:25;90.53;;;58.67;;
66169;SDS011;52971;44.024;20.456;2022-11-04T14:54:54;166.50;;;109.60;;
66169;SDS011;52971;44.024;20.456;2022-11-04T14:57:22;143.70;;;93.47;;
66169;SDS011;52971;44.024;20.456;2022-11-04T14:59:48;160.68;;;104.88;;
66169;SDS011;52971;44.024;20.456;2022-11-04T15:02:28;163.55;;;102.03;;
66169;SDS011;52971;44.024;20.456;2022-11-04T15:04:59;159.90;;;101.93;;
66169;SDS011;52971;44.024;20.456;2022-11-04T15:07:35;161.88;;;100.55;;
66169;SDS011;52971;44.024;20.456;2022-11-04T15:10:21;160.90;;;100.65;;
66169;SDS011;52971;44.024;20.456;2022-11-04T15:12:49;161.20;;;103.93;;
66169;SDS011;52971;44.024;20.456;2022-11-04T15:18:03;170.57;;;104.53;;
66169;SDS011;52971;44.024;20.456;2022-11-04T15:20:31;155.80;;;100.28;;
66169;SDS011;52971;44.024;20.456;2022-11-04T15:22:59;160.68;;;102.10;;
66169;SDS011;52971;44.024;20.456;2022-11-04T15:25:27;178.38;;;107.20;;
66169;SDS011;52971;44.024;20.456;2022-11-04T15:27:53;156.73;;;102.82;;
66169;SDS011;52971;44.024;20.456;2022-11-04T15:30:26;178.02;;;108.28;;
66169;SDS011;52971;44.024;20.456;2022-11-04T15:32:58;174.40;;;104.13;;
66169;SDS011;52971;44.024;20.456;2022-11-04T15:35:25;161.35;;;99.05;;
66169;SDS011;52971;44.024;20.456;2022-11-04T15:37:53;165.63;;;102.53;;
66169;SDS011;52971;44.024;20.456;2022-11-04T15:40:20;174.18;;;104.63;;
66169;SDS011;52971;44.024;20.456;2022-11-04T15:42:46;157.77;;;99.95;;
66169;SDS011;52971;44.024;20.456;2022-11-04T15:50:55;194.48;;;125.60;;
66169;SDS011;52971;44.024;20.456;2022-11-04T15:53:28;252.45;;;165.23;;
66169;SDS011;52971;44.024;20.456;2022-11-04T15:55:54;248.38;;;168.75;;
66169;SDS011;52971;44.024;20.456;2022-11-04T15:58:19;177.45;;;112.28;;
66169;SDS011;52971;44.024;20.456;2022-11-04T16:00:52;172.73;;;115.13;;
66169;SDS011;52971;44.024;20.456;2022-11-04T16:03:19;201.05;;;124.78;;
66169;SDS011;52971;44.024;20.456;2022-11-04T16:06:06;196.85;;;128.50;;
66169;SDS011;52971;44.024;20.456;2022-11-04T16:08:34;182.05;;;116.45;;
66169;SDS011;52971;44.024;20.456;2022-11-04T16:11:16;177.18;;;115.75;;
66169;SDS011;52971;44.024;20.456;2022-11-04T16:13:44;171.48;;;114.47;;
66169;SDS011;52971;44.024;20.456;2022-11-04T16:26:47;244.77;;;157.30;;
66169;SDS011;52971;44.024;20.456;2022-11-04T16:29:16;201.50;;;126.30;;
66169;SDS011;52971;44.024;20.456;2022-11-04T16:34:38;183.82;;;120.47;;
66169;SDS011;52971;44.024;20.456;2022-11-04T16:37:04;190.90;;;121.78;;
66169;SDS011;52971;44.024;20.456;2022-11-04T16:39:29;165.77;;;111.18;;
66169;SDS011;52971;44.024;20.456;2022-11-04T16:41:56;165.98;;;107.10;;
66169;SDS011;52971;44.024;20.456;2022-11-04T16:44:22;174.60;;;113.82;;
66169;SDS011;52971;44.024;20.456;2022-11-04T16:46:49;196.00;;;124.90;;
66169;SDS011;52971;44.024;20.456;2022-11-04T16:49:15;198.55;;;132.48;;
66169;SDS011;52971;44.024;20.456;2022-11-04T16:51:43;190.13;;;123.80;;
66169;SDS011;52971;44.024;20.456;2022-11-04T16:54:09;193.68;;;129.10;;
66169;SDS011;52971;44.024;20.456;2022-11-04T16:56:35;260.27;;;172.40;;
66169;SDS011;52971;44.024;20.456;2022-11-04T16:59:00;204.57;;;141.50;;
66169;SDS011;52971;44.024;20.456;2022-11-04T17:01:26;202.13;;;131.70;;
66169;SDS011;52971;44.024;20.456;2022-11-04T17:03:51;240.70;;;159.45;;
66169;SDS011;52971;44.024;20.456;2022-11-04T17:06:17;209.05;;;142.52;;
66169;SDS011;52971;44.024;20.456;2022-11-04T17:08:43;195.27;;;132.63;;